CY-0001 weather

Lakatamia Airfield
Nicosia District, Cyprus

Public forecast

Using degrees Celsius for public forecast. Weather courtesy of forecast.io.

Closest aviation weather report (METAR) to Lakatamia Airfield

Closest report is Ercan International Airport, 9.1 nm (16.8 km) ENE. Retrieved 2019/12/11 02:20 UTC (21 minutes ago):

LCEN 110220Z 00000KT 9999 FEW025 SCT030 BKN080 12/10 Q1014 NOSIG RMK RWY11 27003KT

Closest aviation forecast (TAF) to Lakatamia Airfield

Closest forecast is Ercan International Airport, 9.1 nm (16.8 km) ENE. Retrieved 2019-12-11 00:00 UTC (3 hours ago):

TAF LCEN 102240Z 1100/1124 12012KT 9999 SCT025 BKN100 PROB30 TEMPO 1101/1105 5000 RA BKN025 BKN080